Terminal Aerodrome Forecast
Issued by NWS

Home | Current Version | Previous Version | Text Only | Print | Product List | Glossary On
Versions: 1 2 3 4 5 6 7 8 9 10 11 12 13 14 15 16 17 18
548
FTAK31 PAJN 242331
TAFAYA
TAF
PAYA 242331Z 2500/2524 09010KT 6SM SHRA VCTS SCT020 BKN025 OVC035CB
     FM251800 12005KT P6SM -SHRA SCT020 BKN040 OVC060
      AMD LTD TO CLD VIS AND WIND 2501/2509=

USA.gov is the U.S. government's official web portal to all federal, state and local government web resources and services.